LAH weather

Lake Holmes Airstrip
Danau Bira, Papua, Indonesia

Public forecast

Using degrees Celsius for public forecast. Weather courtesy of forecast.io.

Closest aviation weather report (METAR) to Lake Holmes Airstrip

Closest report is Frans Kaisiepo Airport, 136.6 nm (252.9 km) NW. Retrieved 2020/01/26 07:30 UTC (16 minutes ago):

WABB 260730Z 12007KT 9999 SCT018 30/26 Q1007 NOSIG

Closest aviation forecast (TAF) to Lake Holmes Airstrip

Closest forecast is Frans Kaisiepo Airport, 136.6 nm (252.9 km) NW. Retrieved 2020/01/26 06:09 UTC (2 hours ago):

TAF WABB 260500Z 2606/2712 32007KT 9999 SCT018 BECMG 2610/2612 00000KT